Dover Air Force Base
KDOV : now visible

Airfield :











YOU CAN JOIN US ON...

 
LOGIN :

Register | Disclaimer

   EN    FR    IT 

 









Legend :    VFR   Marginal VFR   IFR   Intensive IFR   Very Intensive IFR
Visi :
Ceiling :
>= 8 km
>= 3000ft
5 to 8 km
1000 to 3000 ft
1500m to 5 km
500 to 1000 ft
800 to 1500m
200 to 500 ft
< 800m
< 200 ft
Symbols :   Thunderstorms  Fog  Heavy snow  Heavy precipitations  Wind > 20 kt






- Airport Elevation : 24 ft


KDOV - Dover Air Force Base

EXPIRED METARs :
  • 191356Z AUTO 32012KT 10SM BKN095 07/M02 A3028 RMK AO2 SLP257 T00671020 $
  • 191256Z AUTO 32013KT 10SM OVC090 07/M01 A3024 RMK AO2 SLP244 T00651009 $

TAF TAF KDOV
Valid from the 19 at 08:00 until the 20 at 14:00 UTC


190800Z 1908/2014 32012KT 9000 -RA BKN050 QNH3008INS
BECMG 1917/1918 32020G25KT 9999 NSW FEW230 510063 QNH3028INS
BECMG 1923/1924 33009KT 9999 SCT190 QNH3035INS TX07/1920Z TN00/2008Z



MET'MAP, your aeronautical weather chart ! - Copyright ORBIFLY December 2007 - Disclaimer

ORBIFLY MET'MAP TEAM :

Programming & Development : Alexandra Zaïnal
Concept & original design : Baudouin d'Aumeries
Assistance for programming : Marc-Olivier Méhu
Technical & hardware support : Manuel Goepfert

Contact : metmap@orbifly.com




SOURCES & CREDITS :

   NOAA       Earth
Advisory